createdAt,value
2022-10-10T00:02:31.618Z,9.85
2022-10-10T00:07:53.234Z,9.75
2022-10-10T00:13:14.931Z,6.93
2022-10-10T00:18:36.886Z,8.13
2022-10-10T00:23:58.724Z,8.55
2022-10-10T00:29:20.043Z,8.63
2022-10-10T00:34:41.597Z,8.25
2022-10-10T00:40:04.223Z,9.15
2022-10-10T00:45:39.211Z,8.35
2022-10-10T00:51:05.734Z,7.80
2022-10-10T00:56:35.807Z,8.45
2022-10-10T01:01:57.229Z,8.68
2022-10-10T01:07:25.297Z,9.27
2022-10-10T01:12:53.149Z,7.60
2022-10-10T01:18:42.087Z,7.18
2022-10-10T01:24:09.641Z,7.93
2022-10-10T01:29:37.545Z,7.57
2022-10-10T01:35:08.497Z,8.23
2022-10-10T01:40:30.114Z,8.30
2022-10-10T01:45:53.382Z,7.15
2022-10-10T01:51:33.127Z,5.53
2022-10-10T01:57:09.865Z,5.90
2022-10-10T02:02:57.363Z,7.13
2022-10-10T02:08:33.433Z,7.55
2022-10-10T02:14:02.827Z,7.20
2022-10-10T02:19:25.717Z,7.43
2022-10-10T02:24:47.203Z,7.68
2022-10-10T02:30:09.536Z,8.45
2022-10-10T02:35:39.943Z,7.93
2022-10-10T02:41:04.919Z,8.15
2022-10-10T02:46:26.326Z,6.72
2022-10-10T02:51:47.686Z,8.85
2022-10-10T02:57:09.356Z,8.20
2022-10-10T03:02:30.932Z,10.25
2022-10-10T03:07:52.657Z,8.85
2022-10-10T03:13:13.897Z,9.57
2022-10-10T03:18:35.452Z,9.00
2022-10-10T03:23:57.705Z,10.57
2022-10-10T03:29:19.166Z,9.05
2022-10-10T03:34:40.688Z,9.43
2022-10-10T03:40:02.367Z,9.52
2022-10-10T03:45:24.968Z,9.40
2022-10-10T03:50:46.552Z,9.30
2022-10-10T03:56:08.132Z,6.95
2022-10-10T04:01:30.553Z,7.75
2022-10-10T04:06:52.061Z,7.78
2022-10-10T04:12:13.622Z,7.53
2022-10-10T04:17:35.391Z,8.70
2022-10-10T04:22:56.985Z,7.53
2022-10-10T04:28:19.325Z,7.03
2022-10-10T04:33:41.118Z,7.30
2022-10-10T04:39:02.937Z,7.95
2022-10-10T04:44:24.690Z,6.47
2022-10-10T04:49:46.058Z,6.32
2022-10-10T04:55:07.945Z,7.35
2022-10-10T05:00:29.466Z,6.65
2022-10-10T05:05:51.045Z,6.38
2022-10-10T05:11:12.366Z,7.38
2022-10-10T05:16:33.929Z,6.95
2022-10-10T05:21:55.474Z,6.72
2022-10-10T05:27:17.266Z,7.05
2022-10-10T05:32:38.937Z,6.65
2022-10-10T05:38:00.582Z,6.43
2022-10-10T05:43:22.032Z,6.80
2022-10-10T05:48:43.838Z,6.20
2022-10-10T05:54:05.627Z,5.63
2022-10-10T05:59:29.158Z,7.97
2022-10-10T06:04:50.378Z,6.13
2022-10-10T06:10:12.010Z,5.03
2022-10-10T06:15:33.594Z,5.05
2022-10-10T06:20:55.279Z,5.28
2022-10-10T06:26:17.532Z,5.82
2022-10-10T06:31:41.320Z,5.68
2022-10-10T06:37:02.514Z,4.68
2022-10-10T06:42:24.173Z,4.25
2022-10-10T06:47:51.835Z,4.95
2022-10-10T06:53:13.458Z,4.43
2022-10-10T06:58:35.662Z,4.05
2022-10-10T07:03:57.006Z,4.82
2022-10-10T07:09:19.615Z,3.97
2022-10-10T07:14:40.904Z,5.32
2022-10-10T07:20:02.466Z,3.95
2022-10-10T07:25:24.594Z,5.00
2022-10-10T07:30:46.784Z,3.85
2022-10-10T07:36:08.722Z,5.07
2022-10-10T07:41:30.049Z,4.10
2022-10-10T07:46:51.569Z,5.30
2022-10-10T07:52:14.557Z,4.28
2022-10-10T07:57:37.147Z,4.82
2022-10-10T08:02:58.729Z,5.80
2022-10-10T08:08:20.359Z,5.55
2022-10-10T08:13:42.657Z,5.07
2022-10-10T08:19:04.784Z,6.72
2022-10-10T08:24:26.448Z,7.38
2022-10-10T08:29:48.111Z,6.50
2022-10-10T08:35:09.573Z,7.28
2022-10-10T08:40:32.340Z,7.13
2022-10-10T08:45:57.634Z,6.60
2022-10-10T08:51:29.025Z,6.50
2022-10-10T08:56:50.899Z,5.78
2022-10-10T09:03:03.742Z,6.88
2022-10-10T09:08:39.564Z,6.85
2022-10-10T09:14:34.940Z,5.78
2022-10-10T09:20:20.871Z,5.45
2022-10-10T09:26:11.948Z,5.60
2022-10-10T09:31:43.003Z,5.63
2022-10-10T09:37:13.731Z,6.15
2022-10-10T09:42:39.905Z,5.30
2022-10-10T09:48:01.374Z,4.55
2022-10-10T09:53:22.577Z,4.72
2022-10-10T09:58:46.739Z,4.28
2022-10-10T10:04:31.155Z,4.55
2022-10-10T10:09:56.355Z,3.63
2022-10-10T10:15:24.418Z,3.85
2022-10-10T10:20:52.259Z,3.92
2022-10-10T10:26:46.960Z,4.22
2022-10-10T10:32:17.300Z,3.22
2022-10-10T10:38:14.194Z,4.30
2022-10-10T10:43:50.759Z,4.55
2022-10-10T10:49:24.679Z,3.97
2022-10-10T10:54:50.054Z,3.70
2022-10-10T11:00:47.247Z,2.92
2022-10-10T11:06:19.765Z,3.00
2022-10-10T11:17:22.218Z,3.60
2022-10-10T11:22:52.683Z,3.97
2022-10-10T11:28:22.411Z,3.25
2022-10-10T11:33:49.004Z,2.75
2022-10-10T11:39:23.423Z,3.00
2022-10-10T11:45:02.542Z,1.85
2022-10-10T11:50:31.073Z,2.07
2022-10-10T11:56:13.611Z,2.55
2022-10-10T12:01:46.905Z,1.88
2022-10-10T12:07:18.582Z,1.98
2022-10-10T12:12:48.043Z,2.53
2022-10-10T12:18:39.572Z,2.35
2022-10-10T12:24:11.662Z,2.15
2022-10-10T12:30:08.189Z,1.90
2022-10-10T12:35:41.783Z,2.58
2022-10-10T12:41:16.507Z,2.33
2022-10-10T12:46:38.239Z,2.13
2022-10-10T12:52:20.379Z,2.22
2022-10-10T12:57:44.591Z,2.50
2022-10-10T13:03:17.283Z,2.70
2022-10-10T13:08:42.056Z,2.20
2022-10-10T13:14:08.785Z,2.83
2022-10-10T13:19:30.406Z,2.38
2022-10-10T13:24:52.821Z,2.95
2022-10-10T13:30:23.233Z,2.78
2022-10-10T13:35:47.274Z,2.63
2022-10-10T13:41:08.873Z,2.28
2022-10-10T13:46:33.133Z,3.65
2022-10-10T13:52:22.268Z,3.55
2022-10-10T13:57:43.949Z,3.00
2022-10-10T14:03:20.343Z,2.55
2022-10-10T14:08:41.942Z,2.75
2022-10-10T14:14:09.216Z,2.47
2022-10-10T14:19:31.723Z,2.88
2022-10-10T14:24:53.207Z,2.63
2022-10-10T14:30:15.345Z,2.53
2022-10-10T14:35:36.997Z,2.88
2022-10-10T14:41:00.532Z,2.33
2022-10-10T14:46:22.373Z,3.20
2022-10-10T14:51:43.838Z,2.78
2022-10-10T14:57:07.062Z,2.72
2022-10-10T15:02:30.979Z,3.42
2022-10-10T15:07:53.902Z,2.20
2022-10-10T15:13:16.329Z,7.22
2022-10-10T15:18:53.743Z,5.20
2022-10-10T15:24:17.167Z,5.45
2022-10-10T15:29:39.838Z,3.85
2022-10-10T15:35:01.186Z,3.33
2022-10-10T15:40:24.592Z,3.10
2022-10-10T15:45:55.944Z,2.55
2022-10-10T15:51:17.930Z,2.45
2022-10-10T15:56:39.697Z,2.63
2022-10-10T16:02:01.879Z,3.35
2022-10-10T16:07:29.197Z,2.85
2022-10-10T16:12:53.872Z,2.88
2022-10-10T16:18:15.216Z,2.78
2022-10-10T16:23:37.901Z,2.28
2022-10-10T16:29:01.297Z,2.75
2022-10-10T16:34:22.840Z,3.17
2022-10-10T16:39:44.503Z,2.70
2022-10-10T16:45:06.424Z,3.90
2022-10-10T16:50:27.531Z,2.78
2022-10-10T16:55:49.171Z,2.50
2022-10-10T17:01:14.723Z,2.63
2022-10-10T17:06:39.743Z,3.08
2022-10-10T17:12:01.090Z,2.75
2022-10-10T17:17:22.851Z,2.65
2022-10-10T17:22:44.144Z,3.22
2022-10-10T17:28:05.849Z,2.45
2022-10-10T17:33:27.321Z,3.15
2022-10-10T17:38:49.261Z,3.28
2022-10-10T17:44:10.976Z,3.08
2022-10-10T17:49:32.795Z,2.67
2022-10-10T17:54:54.547Z,2.30
2022-10-10T18:00:16.310Z,3.10
2022-10-10T18:05:37.807Z,2.28
2022-10-10T18:10:59.512Z,2.63
2022-10-10T18:16:22.736Z,2.55
2022-10-10T18:21:46.733Z,2.50
2022-10-10T18:27:08.290Z,2.35
2022-10-10T18:32:29.905Z,2.50
2022-10-10T18:37:51.844Z,2.75
2022-10-10T18:43:13.213Z,2.70
2022-10-10T18:48:35.895Z,2.70
2022-10-10T18:54:02.132Z,1.92
2022-10-10T18:59:23.739Z,2.25
2022-10-10T19:04:47.771Z,3.22
2022-10-10T19:10:09.235Z,2.17
2022-10-10T19:15:30.727Z,2.95
2022-10-10T19:20:59.660Z,3.10
2022-10-10T19:26:21.529Z,4.15
2022-10-10T19:31:42.672Z,3.63
2022-10-10T19:37:04.660Z,4.95
2022-10-10T19:42:26.307Z,3.83
2022-10-10T19:47:47.912Z,5.07
2022-10-10T19:53:10.448Z,4.65
2022-10-10T19:58:32.061Z,4.30
2022-10-10T20:03:53.981Z,3.60
2022-10-10T20:09:15.705Z,3.72
2022-10-10T20:14:37.394Z,4.57
2022-10-10T20:19:58.783Z,5.28
2022-10-10T20:25:20.195Z,5.55
2022-10-10T20:30:44.172Z,4.95
2022-10-10T20:36:06.012Z,4.53
2022-10-10T20:41:30.415Z,4.05
2022-10-10T20:46:52.056Z,3.97
2022-10-10T20:52:13.684Z,3.42
2022-10-10T20:57:35.126Z,3.88
2022-10-10T21:02:56.705Z,3.80
2022-10-10T21:08:17.935Z,4.72
2022-10-10T21:13:43.199Z,4.82
2022-10-10T21:19:06.513Z,3.33
2022-10-10T21:24:28.168Z,4.57
2022-10-10T21:29:49.535Z,3.00
2022-10-10T21:35:11.144Z,2.78
2022-10-10T21:40:32.403Z,3.42
2022-10-10T21:45:54.024Z,3.85
2022-10-10T21:51:16.275Z,2.75
2022-10-10T21:56:38.222Z,3.42
2022-10-10T22:01:59.450Z,4.38
2022-10-10T22:07:21.179Z,4.22
2022-10-10T22:12:43.649Z,3.92
2022-10-10T22:18:04.945Z,4.55
2022-10-10T22:23:26.554Z,4.65
2022-10-10T22:28:47.918Z,4.57
2022-10-10T22:34:09.708Z,5.30
2022-10-10T22:39:31.366Z,4.22
2022-10-10T22:44:52.682Z,4.90
2022-10-10T22:50:14.277Z,4.68
2022-10-10T22:55:35.924Z,4.75
2022-10-10T23:01:02.206Z,4.68
2022-10-10T23:06:23.858Z,4.90
2022-10-10T23:11:45.382Z,5.25
2022-10-10T23:17:07.007Z,5.03
2022-10-10T23:22:28.302Z,4.80
2022-10-10T23:27:50.228Z,4.82
2022-10-10T23:33:12.647Z,4.13
2022-10-10T23:38:34.494Z,5.28
2022-10-10T23:43:56.562Z,6.07
2022-10-10T23:49:17.843Z,6.63
2022-10-10T23:54:39.552Z,4.90
2022-10-10T23:59:55.833Z,5.50
